sensor_id;sensor_type;location;lat;lon;timestamp;P1;durP1;ratioP1;P2;durP2;ratioP2
64282;SDS011;50497;50.720;-2.084;2022-12-17T00:01:53;61.88;;;25.42;;
64282;SDS011;50497;50.720;-2.084;2022-12-17T00:04:37;53.13;;;23.40;;
64282;SDS011;50497;50.720;-2.084;2022-12-17T00:07:21;55.05;;;22.88;;
64282;SDS011;50497;50.720;-2.084;2022-12-17T00:10:05;53.03;;;21.90;;
64282;SDS011;50497;50.720;-2.084;2022-12-17T00:12:50;57.05;;;23.38;;
64282;SDS011;50497;50.720;-2.084;2022-12-17T00:15:34;58.20;;;23.85;;
64282;SDS011;50497;50.720;-2.084;2022-12-17T00:18:18;57.60;;;24.05;;
64282;SDS011;50497;50.720;-2.084;2022-12-17T00:21:03;64.90;;;26.77;;
64282;SDS011;50497;50.720;-2.084;2022-12-17T00:23:47;72.75;;;28.70;;
64282;SDS011;50497;50.720;-2.084;2022-12-17T00:26:32;79.75;;;31.48;;
64282;SDS011;50497;50.720;-2.084;2022-12-17T00:29:16;76.38;;;31.55;;
64282;SDS011;50497;50.720;-2.084;2022-12-17T00:32:01;74.85;;;28.88;;
64282;SDS011;50497;50.720;-2.084;2022-12-17T00:34:45;67.93;;;25.40;;
64282;SDS011;50497;50.720;-2.084;2022-12-17T00:37:29;65.40;;;25.00;;
64282;SDS011;50497;50.720;-2.084;2022-12-17T00:40:13;57.45;;;23.42;;
64282;SDS011;50497;50.720;-2.084;2022-12-17T00:43:02;54.70;;;23.77;;
64282;SDS011;50497;50.720;-2.084;2022-12-17T00:45:51;55.85;;;22.83;;
64282;SDS011;50497;50.720;-2.084;2022-12-17T00:48:35;55.08;;;22.15;;
64282;SDS011;50497;50.720;-2.084;2022-12-17T00:51:20;50.90;;;21.15;;
64282;SDS011;50497;50.720;-2.084;2022-12-17T00:54:05;54.65;;;23.08;;
64282;SDS011;50497;50.720;-2.084;2022-12-17T00:56:49;57.60;;;23.70;;
64282;SDS011;50497;50.720;-2.084;2022-12-17T00:59:34;53.25;;;22.08;;
64282;SDS011;50497;50.720;-2.084;2022-12-17T01:02:18;53.00;;;21.83;;
64282;SDS011;50497;50.720;-2.084;2022-12-17T01:05:02;47.95;;;20.05;;
64282;SDS011;50497;50.720;-2.084;2022-12-17T01:07:47;53.15;;;20.50;;
64282;SDS011;50497;50.720;-2.084;2022-12-17T01:10:31;45.22;;;19.70;;
64282;SDS011;50497;50.720;-2.084;2022-12-17T01:13:15;54.15;;;21.30;;
64282;SDS011;50497;50.720;-2.084;2022-12-17T01:16:08;52.42;;;21.40;;
64282;SDS011;50497;50.720;-2.084;2022-12-17T01:18:57;46.15;;;20.17;;
64282;SDS011;50497;50.720;-2.084;2022-12-17T01:21:44;51.55;;;21.80;;
64282;SDS011;50497;50.720;-2.084;2022-12-17T01:24:31;56.15;;;22.25;;
64282;SDS011;50497;50.720;-2.084;2022-12-17T01:30:00;48.83;;;19.52;;
64282;SDS011;50497;50.720;-2.084;2022-12-17T01:32:44;49.47;;;20.55;;
64282;SDS011;50497;50.720;-2.084;2022-12-17T01:35:28;47.13;;;19.95;;
64282;SDS011;50497;50.720;-2.084;2022-12-17T01:38:21;54.38;;;21.75;;
64282;SDS011;50497;50.720;-2.084;2022-12-17T01:41:05;54.90;;;22.80;;
64282;SDS011;50497;50.720;-2.084;2022-12-17T01:47:51;49.53;;;19.67;;
64282;SDS011;50497;50.720;-2.084;2022-12-17T01:50:43;47.50;;;19.67;;
64282;SDS011;50497;50.720;-2.084;2022-12-17T01:53:31;57.78;;;24.98;;
64282;SDS011;50497;50.720;-2.084;2022-12-17T01:56:18;55.90;;;23.73;;
64282;SDS011;50497;50.720;-2.084;2022-12-17T01:59:04;54.33;;;23.63;;
64282;SDS011;50497;50.720;-2.084;2022-12-17T02:02:04;52.72;;;22.20;;
64282;SDS011;50497;50.720;-2.084;2022-12-17T02:04:55;58.85;;;23.67;;
64282;SDS011;50497;50.720;-2.084;2022-12-17T02:07:49;55.80;;;23.60;;
64282;SDS011;50497;50.720;-2.084;2022-12-17T02:11:04;52.90;;;22.05;;
64282;SDS011;50497;50.720;-2.084;2022-12-17T02:14:15;54.95;;;22.70;;
64282;SDS011;50497;50.720;-2.084;2022-12-17T02:17:23;54.78;;;23.20;;
64282;SDS011;50497;50.720;-2.084;2022-12-17T02:20:19;55.58;;;22.83;;
64282;SDS011;50497;50.720;-2.084;2022-12-17T02:26:07;50.95;;;20.17;;
64282;SDS011;50497;50.720;-2.084;2022-12-17T02:28:52;54.88;;;22.23;;
64282;SDS011;50497;50.720;-2.084;2022-12-17T02:31:40;59.03;;;23.33;;
64282;SDS011;50497;50.720;-2.084;2022-12-17T02:34:30;53.50;;;22.60;;
64282;SDS011;50497;50.720;-2.084;2022-12-17T02:37:24;59.92;;;22.65;;
64282;SDS011;50497;50.720;-2.084;2022-12-17T02:40:13;56.13;;;23.23;;
64282;SDS011;50497;50.720;-2.084;2022-12-17T02:42:57;52.67;;;21.98;;
64282;SDS011;50497;50.720;-2.084;2022-12-17T02:45:42;57.03;;;23.33;;
64282;SDS011;50497;50.720;-2.084;2022-12-17T02:48:26;59.30;;;24.67;;
64282;SDS011;50497;50.720;-2.084;2022-12-17T02:51:10;57.40;;;23.13;;
64282;SDS011;50497;50.720;-2.084;2022-12-17T02:53:55;53.35;;;22.38;;
64282;SDS011;50497;50.720;-2.084;2022-12-17T02:56:39;55.22;;;23.42;;
64282;SDS011;50497;50.720;-2.084;2022-12-17T02:59:23;54.30;;;23.50;;
64282;SDS011;50497;50.720;-2.084;2022-12-17T03:02:07;59.03;;;22.63;;
64282;SDS011;50497;50.720;-2.084;2022-12-17T03:04:51;61.00;;;24.75;;
64282;SDS011;50497;50.720;-2.084;2022-12-17T03:07:35;53.97;;;23.65;;
64282;SDS011;50497;50.720;-2.084;2022-12-17T03:10:19;55.05;;;22.80;;
64282;SDS011;50497;50.720;-2.084;2022-12-17T03:13:03;57.03;;;25.90;;
64282;SDS011;50497;50.720;-2.084;2022-12-17T03:15:46;64.70;;;30.58;;
64282;SDS011;50497;50.720;-2.084;2022-12-17T03:18:30;51.83;;;21.77;;
64282;SDS011;50497;50.720;-2.084;2022-12-17T03:21:14;56.88;;;22.63;;
64282;SDS011;50497;50.720;-2.084;2022-12-17T03:23:58;56.97;;;23.52;;
64282;SDS011;50497;50.720;-2.084;2022-12-17T03:26:42;57.92;;;23.88;;
64282;SDS011;50497;50.720;-2.084;2022-12-17T03:29:26;57.65;;;23.92;;
64282;SDS011;50497;50.720;-2.084;2022-12-17T03:32:10;55.95;;;23.30;;
64282;SDS011;50497;50.720;-2.084;2022-12-17T03:34:57;59.47;;;24.75;;
64282;SDS011;50497;50.720;-2.084;2022-12-17T03:37:41;54.70;;;23.33;;
64282;SDS011;50497;50.720;-2.084;2022-12-17T03:40:25;57.83;;;24.90;;
64282;SDS011;50497;50.720;-2.084;2022-12-17T03:43:10;57.53;;;22.40;;
64282;SDS011;50497;50.720;-2.084;2022-12-17T03:45:54;55.22;;;23.42;;
64282;SDS011;50497;50.720;-2.084;2022-12-17T03:48:41;57.38;;;23.50;;
64282;SDS011;50497;50.720;-2.084;2022-12-17T03:51:26;55.22;;;23.60;;
64282;SDS011;50497;50.720;-2.084;2022-12-17T03:54:10;57.47;;;23.67;;
64282;SDS011;50497;50.720;-2.084;2022-12-17T03:56:54;52.95;;;22.17;;
64282;SDS011;50497;50.720;-2.084;2022-12-17T03:59:42;55.72;;;22.25;;
64282;SDS011;50497;50.720;-2.084;2022-12-17T04:02:30;52.42;;;22.40;;
64282;SDS011;50497;50.720;-2.084;2022-12-17T04:05:14;49.63;;;21.05;;
64282;SDS011;50497;50.720;-2.084;2022-12-17T04:07:58;55.28;;;21.42;;
64282;SDS011;50497;50.720;-2.084;2022-12-17T04:10:42;48.05;;;21.30;;
64282;SDS011;50497;50.720;-2.084;2022-12-17T04:13:26;50.90;;;21.63;;
64282;SDS011;50497;50.720;-2.084;2022-12-17T04:16:12;45.70;;;19.30;;
64282;SDS011;50497;50.720;-2.084;2022-12-17T04:18:56;47.05;;;20.30;;
64282;SDS011;50497;50.720;-2.084;2022-12-17T04:21:40;45.47;;;18.80;;
64282;SDS011;50497;50.720;-2.084;2022-12-17T04:24:24;45.65;;;19.08;;
64282;SDS011;50497;50.720;-2.084;2022-12-17T04:27:08;46.58;;;19.05;;
64282;SDS011;50497;50.720;-2.084;2022-12-17T04:29:57;51.35;;;21.27;;
64282;SDS011;50497;50.720;-2.084;2022-12-17T04:32:41;41.25;;;17.50;;
64282;SDS011;50497;50.720;-2.084;2022-12-17T04:35:25;53.75;;;22.88;;
64282;SDS011;50497;50.720;-2.084;2022-12-17T04:38:08;51.83;;;21.25;;
64282;SDS011;50497;50.720;-2.084;2022-12-17T04:40:53;48.75;;;20.50;;
64282;SDS011;50497;50.720;-2.084;2022-12-17T04:43:37;49.22;;;20.17;;
64282;SDS011;50497;50.720;-2.084;2022-12-17T04:46:21;53.88;;;21.70;;
64282;SDS011;50497;50.720;-2.084;2022-12-17T04:49:05;48.47;;;19.80;;
64282;SDS011;50497;50.720;-2.084;2022-12-17T04:51:49;50.40;;;20.98;;
64282;SDS011;50497;50.720;-2.084;2022-12-17T04:54:33;50.13;;;20.85;;
64282;SDS011;50497;50.720;-2.084;2022-12-17T04:57:16;51.08;;;19.48;;
64282;SDS011;50497;50.720;-2.084;2022-12-17T05:00:00;46.70;;;19.73;;
64282;SDS011;50497;50.720;-2.084;2022-12-17T05:02:44;47.83;;;20.25;;
64282;SDS011;50497;50.720;-2.084;2022-12-17T05:05:31;51.15;;;21.67;;
64282;SDS011;50497;50.720;-2.084;2022-12-17T05:08:15;47.25;;;18.75;;
64282;SDS011;50497;50.720;-2.084;2022-12-17T05:11:03;51.50;;;21.38;;
64282;SDS011;50497;50.720;-2.084;2022-12-17T05:13:47;51.58;;;21.15;;
64282;SDS011;50497;50.720;-2.084;2022-12-17T05:16:31;52.67;;;21.30;;
64282;SDS011;50497;50.720;-2.084;2022-12-17T05:19:16;49.45;;;19.90;;
64282;SDS011;50497;50.720;-2.084;2022-12-17T05:22:00;49.47;;;20.75;;
64282;SDS011;50497;50.720;-2.084;2022-12-17T05:24:44;44.45;;;18.83;;
64282;SDS011;50497;50.720;-2.084;2022-12-17T05:27:28;55.65;;;21.52;;
64282;SDS011;50497;50.720;-2.084;2022-12-17T05:30:12;54.97;;;22.58;;
64282;SDS011;50497;50.720;-2.084;2022-12-17T05:32:59;49.15;;;20.33;;
64282;SDS011;50497;50.720;-2.084;2022-12-17T05:35:44;50.03;;;21.45;;
64282;SDS011;50497;50.720;-2.084;2022-12-17T05:38:28;50.95;;;20.88;;
64282;SDS011;50497;50.720;-2.084;2022-12-17T05:41:12;48.70;;;20.30;;
64282;SDS011;50497;50.720;-2.084;2022-12-17T05:43:57;51.30;;;20.92;;
64282;SDS011;50497;50.720;-2.084;2022-12-17T05:46:41;48.33;;;20.65;;
64282;SDS011;50497;50.720;-2.084;2022-12-17T05:49:27;45.20;;;20.20;;
64282;SDS011;50497;50.720;-2.084;2022-12-17T05:52:11;49.50;;;20.20;;
64282;SDS011;50497;50.720;-2.084;2022-12-17T05:54:55;48.28;;;20.98;;
64282;SDS011;50497;50.720;-2.084;2022-12-17T05:57:40;47.30;;;20.23;;
64282;SDS011;50497;50.720;-2.084;2022-12-17T06:00:24;51.75;;;20.50;;
64282;SDS011;50497;50.720;-2.084;2022-12-17T06:03:08;51.83;;;20.55;;
64282;SDS011;50497;50.720;-2.084;2022-12-17T06:05:56;43.63;;;18.27;;
64282;SDS011;50497;50.720;-2.084;2022-12-17T06:08:43;43.10;;;18.48;;
64282;SDS011;50497;50.720;-2.084;2022-12-17T06:11:27;46.90;;;17.90;;
64282;SDS011;50497;50.720;-2.084;2022-12-17T06:14:11;40.15;;;18.88;;
64282;SDS011;50497;50.720;-2.084;2022-12-17T06:16:55;44.85;;;18.95;;
64282;SDS011;50497;50.720;-2.084;2022-12-17T06:19:38;47.67;;;19.80;;
64282;SDS011;50497;50.720;-2.084;2022-12-17T06:22:27;46.38;;;19.70;;
64282;SDS011;50497;50.720;-2.084;2022-12-17T06:25:11;44.03;;;18.98;;
64282;SDS011;50497;50.720;-2.084;2022-12-17T06:28:01;47.65;;;19.58;;
64282;SDS011;50497;50.720;-2.084;2022-12-17T06:30:52;41.92;;;15.20;;
64282;SDS011;50497;50.720;-2.084;2022-12-17T06:33:38;43.35;;;19.20;;
64282;SDS011;50497;50.720;-2.084;2022-12-17T06:36:23;46.55;;;20.33;;
64282;SDS011;50497;50.720;-2.084;2022-12-17T06:39:07;46.67;;;19.42;;
64282;SDS011;50497;50.720;-2.084;2022-12-17T06:41:52;42.88;;;19.05;;
64282;SDS011;50497;50.720;-2.084;2022-12-17T06:44:36;45.25;;;18.77;;
64282;SDS011;50497;50.720;-2.084;2022-12-17T06:47:21;45.25;;;19.73;;
64282;SDS011;50497;50.720;-2.084;2022-12-17T06:50:05;49.92;;;19.88;;
64282;SDS011;50497;50.720;-2.084;2022-12-17T06:53:04;43.60;;;19.15;;
64282;SDS011;50497;50.720;-2.084;2022-12-17T06:55:49;43.75;;;19.65;;
64282;SDS011;50497;50.720;-2.084;2022-12-17T06:58:33;47.20;;;19.50;;
64282;SDS011;50497;50.720;-2.084;2022-12-17T07:01:17;44.20;;;19.10;;
64282;SDS011;50497;50.720;-2.084;2022-12-17T07:04:02;44.42;;;18.42;;
64282;SDS011;50497;50.720;-2.084;2022-12-17T07:06:46;44.22;;;19.73;;
64282;SDS011;50497;50.720;-2.084;2022-12-17T07:09:30;42.78;;;18.63;;
64282;SDS011;50497;50.720;-2.084;2022-12-17T07:12:15;43.88;;;20.15;;
64282;SDS011;50497;50.720;-2.084;2022-12-17T07:14:58;44.47;;;19.27;;
64282;SDS011;50497;50.720;-2.084;2022-12-17T07:17:52;45.13;;;18.20;;
64282;SDS011;50497;50.720;-2.084;2022-12-17T07:20:37;44.30;;;18.75;;
64282;SDS011;50497;50.720;-2.084;2022-12-17T07:23:25;44.20;;;19.25;;
64282;SDS011;50497;50.720;-2.084;2022-12-17T07:26:10;48.65;;;19.65;;
64282;SDS011;50497;50.720;-2.084;2022-12-17T07:28:54;44.30;;;19.58;;
64282;SDS011;50497;50.720;-2.084;2022-12-17T07:31:38;44.38;;;18.85;;
64282;SDS011;50497;50.720;-2.084;2022-12-17T07:34:23;45.85;;;20.35;;
64282;SDS011;50497;50.720;-2.084;2022-12-17T07:37:06;47.33;;;19.30;;
64282;SDS011;50497;50.720;-2.084;2022-12-17T07:39:55;44.90;;;19.00;;
64282;SDS011;50497;50.720;-2.084;2022-12-17T07:42:39;43.40;;;18.50;;
64282;SDS011;50497;50.720;-2.084;2022-12-17T07:45:23;46.35;;;19.42;;
64282;SDS011;50497;50.720;-2.084;2022-12-17T07:48:10;45.15;;;18.77;;
64282;SDS011;50497;50.720;-2.084;2022-12-17T07:50:54;43.78;;;18.05;;
64282;SDS011;50497;50.720;-2.084;2022-12-17T07:53:38;39.53;;;17.58;;
64282;SDS011;50497;50.720;-2.084;2022-12-17T07:56:22;43.08;;;18.13;;
64282;SDS011;50497;50.720;-2.084;2022-12-17T07:59:10;42.15;;;18.08;;
64282;SDS011;50497;50.720;-2.084;2022-12-17T08:02:31;40.45;;;16.75;;
64282;SDS011;50497;50.720;-2.084;2022-12-17T08:05:18;39.55;;;14.38;;
64282;SDS011;50497;50.720;-2.084;2022-12-17T08:08:06;48.63;;;20.27;;
64282;SDS011;50497;50.720;-2.084;2022-12-17T08:10:55;43.47;;;17.23;;
64282;SDS011;50497;50.720;-2.084;2022-12-17T08:13:39;47.83;;;20.23;;
64282;SDS011;50497;50.720;-2.084;2022-12-17T08:16:23;50.28;;;20.00;;
64282;SDS011;50497;50.720;-2.084;2022-12-17T08:19:07;50.13;;;19.25;;
64282;SDS011;50497;50.720;-2.084;2022-12-17T08:21:51;49.40;;;20.92;;
64282;SDS011;50497;50.720;-2.084;2022-12-17T08:24:35;46.83;;;20.58;;
64282;SDS011;50497;50.720;-2.084;2022-12-17T08:27:22;54.28;;;23.00;;
64282;SDS011;50497;50.720;-2.084;2022-12-17T08:30:10;54.55;;;22.80;;
64282;SDS011;50497;50.720;-2.084;2022-12-17T08:32:54;47.05;;;19.95;;
64282;SDS011;50497;50.720;-2.084;2022-12-17T08:35:38;46.65;;;17.23;;
64282;SDS011;50497;50.720;-2.084;2022-12-17T08:38:22;43.08;;;19.05;;
64282;SDS011;50497;50.720;-2.084;2022-12-17T08:41:07;45.83;;;19.65;;
64282;SDS011;50497;50.720;-2.084;2022-12-17T08:43:51;45.65;;;19.30;;
64282;SDS011;50497;50.720;-2.084;2022-12-17T08:46:35;46.53;;;18.92;;
64282;SDS011;50497;50.720;-2.084;2022-12-17T08:49:19;41.80;;;18.13;;
64282;SDS011;50497;50.720;-2.084;2022-12-17T08:52:03;46.17;;;18.42;;
64282;SDS011;50497;50.720;-2.084;2022-12-17T08:54:47;45.22;;;20.40;;
64282;SDS011;50497;50.720;-2.084;2022-12-17T08:57:35;41.20;;;17.50;;
64282;SDS011;50497;50.720;-2.084;2022-12-17T09:00:19;41.72;;;19.00;;
64282;SDS011;50497;50.720;-2.084;2022-12-17T09:03:03;43.53;;;18.27;;
64282;SDS011;50497;50.720;-2.084;2022-12-17T09:05:47;42.90;;;18.20;;
64282;SDS011;50497;50.720;-2.084;2022-12-17T09:08:31;48.03;;;20.55;;
64282;SDS011;50497;50.720;-2.084;2022-12-17T09:11:16;50.67;;;22.42;;
64282;SDS011;50497;50.720;-2.084;2022-12-17T09:14:00;52.88;;;22.23;;
64282;SDS011;50497;50.720;-2.084;2022-12-17T09:16:46;49.15;;;21.13;;
64282;SDS011;50497;50.720;-2.084;2022-12-17T09:19:30;48.08;;;20.73;;
64282;SDS011;50497;50.720;-2.084;2022-12-17T09:22:15;44.60;;;20.65;;
64282;SDS011;50497;50.720;-2.084;2022-12-17T09:24:59;48.92;;;20.98;;
64282;SDS011;50497;50.720;-2.084;2022-12-17T09:27:43;49.22;;;21.35;;
64282;SDS011;50497;50.720;-2.084;2022-12-17T09:30:27;55.85;;;24.35;;
64282;SDS011;50497;50.720;-2.084;2022-12-17T09:33:14;59.10;;;25.38;;
64282;SDS011;50497;50.720;-2.084;2022-12-17T09:36:01;49.28;;;20.75;;
64282;SDS011;50497;50.720;-2.084;2022-12-17T09:38:47;41.38;;;18.35;;
64282;SDS011;50497;50.720;-2.084;2022-12-17T09:45:14;48.47;;;20.45;;
64282;SDS011;50497;50.720;-2.084;2022-12-17T09:51:03;51.22;;;22.02;;
64282;SDS011;50497;50.720;-2.084;2022-12-17T09:53:50;58.63;;;22.85;;
64282;SDS011;50497;50.720;-2.084;2022-12-17T09:56:36;62.10;;;27.13;;
64282;SDS011;50497;50.720;-2.084;2022-12-17T09:59:27;70.28;;;28.52;;
64282;SDS011;50497;50.720;-2.084;2022-12-17T10:02:23;53.90;;;22.83;;
64282;SDS011;50497;50.720;-2.084;2022-12-17T10:05:28;57.78;;;23.98;;
64282;SDS011;50497;50.720;-2.084;2022-12-17T10:08:15;46.65;;;20.90;;
64282;SDS011;50497;50.720;-2.084;2022-12-17T10:14:15;43.65;;;18.80;;
64282;SDS011;50497;50.720;-2.084;2022-12-17T10:17:00;41.83;;;18.45;;
64282;SDS011;50497;50.720;-2.084;2022-12-17T10:19:43;41.60;;;19.15;;
64282;SDS011;50497;50.720;-2.084;2022-12-17T10:22:31;47.58;;;21.52;;
64282;SDS011;50497;50.720;-2.084;2022-12-17T10:25:25;54.72;;;22.60;;
64282;SDS011;50497;50.720;-2.084;2022-12-17T10:28:11;43.67;;;19.45;;
64282;SDS011;50497;50.720;-2.084;2022-12-17T10:30:58;69.78;;;29.02;;
64282;SDS011;50497;50.720;-2.084;2022-12-17T10:33:44;50.75;;;22.70;;
64282;SDS011;50497;50.720;-2.084;2022-12-17T10:36:29;57.67;;;24.83;;
64282;SDS011;50497;50.720;-2.084;2022-12-17T10:39:23;47.90;;;20.20;;
64282;SDS011;50497;50.720;-2.084;2022-12-17T10:42:21;47.10;;;19.60;;
64282;SDS011;50497;50.720;-2.084;2022-12-17T10:48:14;59.13;;;24.55;;
64282;SDS011;50497;50.720;-2.084;2022-12-17T10:51:02;63.83;;;25.63;;
64282;SDS011;50497;50.720;-2.084;2022-12-17T10:53:48;54.63;;;22.48;;
64282;SDS011;50497;50.720;-2.084;2022-12-17T10:56:34;57.00;;;23.90;;
64282;SDS011;50497;50.720;-2.084;2022-12-17T10:59:26;51.25;;;23.08;;
64282;SDS011;50497;50.720;-2.084;2022-12-17T11:02:35;54.35;;;23.90;;
64282;SDS011;50497;50.720;-2.084;2022-12-17T11:05:36;50.08;;;23.50;;
64282;SDS011;50497;50.720;-2.084;2022-12-17T11:08:24;51.65;;;23.77;;
64282;SDS011;50497;50.720;-2.084;2022-12-17T11:11:09;50.00;;;22.17;;
64282;SDS011;50497;50.720;-2.084;2022-12-17T11:13:55;48.20;;;22.98;;
64282;SDS011;50497;50.720;-2.084;2022-12-17T11:16:48;47.17;;;21.58;;
64282;SDS011;50497;50.720;-2.084;2022-12-17T11:19:43;49.30;;;23.40;;
64282;SDS011;50497;50.720;-2.084;2022-12-17T11:28:32;60.67;;;27.55;;
64282;SDS011;50497;50.720;-2.084;2022-12-17T11:34:46;57.85;;;26.77;;
64282;SDS011;50497;50.720;-2.084;2022-12-17T11:59:15;34.35;;;16.80;;
64282;SDS011;50497;50.720;-2.084;2022-12-17T12:02:25;33.05;;;15.07;;
64282;SDS011;50497;50.720;-2.084;2022-12-17T12:05:51;25.50;;;12.07;;
64282;SDS011;50497;50.720;-2.084;2022-12-17T12:11:44;7.47;;;2.75;;
64282;SDS011;50497;50.720;-2.084;2022-12-17T12:18:12;9.93;;;4.13;;
64282;SDS011;50497;50.720;-2.084;2022-12-17T12:24:20;9.65;;;3.17;;
64282;SDS011;50497;50.720;-2.084;2022-12-17T12:27:26;5.72;;;1.77;;
64282;SDS011;50497;50.720;-2.084;2022-12-17T12:36:34;4.88;;;1.60;;
64282;SDS011;50497;50.720;-2.084;2022-12-17T12:39:25;5.18;;;1.90;;
64282;SDS011;50497;50.720;-2.084;2022-12-17T12:42:22;3.67;;;1.23;;
64282;SDS011;50497;50.720;-2.084;2022-12-17T12:51:27;5.20;;;2.10;;
64282;SDS011;50497;50.720;-2.084;2022-12-17T12:54:24;5.53;;;1.95;;
64282;SDS011;50497;50.720;-2.084;2022-12-17T12:57:26;5.57;;;1.90;;
64282;SDS011;50497;50.720;-2.084;2022-12-17T13:11:42;6.60;;;1.85;;
64282;SDS011;50497;50.720;-2.084;2022-12-17T13:14:12;6.55;;;1.90;;
64282;SDS011;50497;50.720;-2.084;2022-12-17T13:22:48;4.30;;;1.50;;
64282;SDS011;50497;50.720;-2.084;2022-12-17T13:25:20;5.25;;;1.65;;
64282;SDS011;50497;50.720;-2.084;2022-12-17T13:27:47;6.18;;;1.77;;
64282;SDS011;50497;50.720;-2.084;2022-12-17T13:35:20;3.45;;;1.33;;
64282;SDS011;50497;50.720;-2.084;2022-12-17T13:43:43;4.60;;;1.27;;
64282;SDS011;50497;50.720;-2.084;2022-12-17T13:46:18;4.53;;;1.50;;
64282;SDS011;50497;50.720;-2.084;2022-12-17T13:49:13;3.78;;;1.30;;
64282;SDS011;50497;50.720;-2.084;2022-12-17T13:51:40;3.35;;;1.30;;
64282;SDS011;50497;50.720;-2.084;2022-12-17T13:54:12;4.95;;;1.65;;
64282;SDS011;50497;50.720;-2.084;2022-12-17T13:56:40;4.53;;;1.67;;
64282;SDS011;50497;50.720;-2.084;2022-12-17T13:59:05;6.22;;;1.90;;
64282;SDS011;50497;50.720;-2.084;2022-12-17T14:01:31;3.90;;;1.60;;
64282;SDS011;50497;50.720;-2.084;2022-12-17T14:03:57;3.03;;;1.40;;
64282;SDS011;50497;50.720;-2.084;2022-12-17T14:06:25;5.00;;;1.50;;
64282;SDS011;50497;50.720;-2.084;2022-12-17T14:08:57;2.70;;;1.23;;
64282;SDS011;50497;50.720;-2.084;2022-12-17T14:11:23;5.45;;;1.40;;
64282;SDS011;50497;50.720;-2.084;2022-12-17T14:14:20;3.95;;;1.20;;
64282;SDS011;50497;50.720;-2.084;2022-12-17T14:16:53;3.83;;;1.33;;
64282;SDS011;50497;50.720;-2.084;2022-12-17T14:19:22;4.45;;;1.25;;
64282;SDS011;50497;50.720;-2.084;2022-12-17T14:21:48;3.53;;;1.40;;
64282;SDS011;50497;50.720;-2.084;2022-12-17T14:24:15;5.47;;;1.10;;
64282;SDS011;50497;50.720;-2.084;2022-12-17T14:26:48;2.72;;;1.20;;
64282;SDS011;50497;50.720;-2.084;2022-12-17T14:29:24;4.13;;;1.35;;
64282;SDS011;50497;50.720;-2.084;2022-12-17T14:31:56;5.53;;;1.80;;
64282;SDS011;50497;50.720;-2.084;2022-12-17T14:34:25;4.07;;;1.20;;
64282;SDS011;50497;50.720;-2.084;2022-12-17T14:36:55;3.72;;;1.23;;
64282;SDS011;50497;50.720;-2.084;2022-12-17T14:41:49;4.63;;;1.10;;
64282;SDS011;50497;50.720;-2.084;2022-12-17T14:47:20;4.22;;;1.30;;
64282;SDS011;50497;50.720;-2.084;2022-12-17T14:49:57;5.93;;;2.08;;
64282;SDS011;50497;50.720;-2.084;2022-12-17T14:52:45;5.30;;;1.85;;
64282;SDS011;50497;50.720;-2.084;2022-12-17T14:55:29;3.42;;;1.30;;
64282;SDS011;50497;50.720;-2.084;2022-12-17T15:01:10;4.05;;;1.30;;
64282;SDS011;50497;50.720;-2.084;2022-12-17T15:03:39;3.53;;;1.48;;
64282;SDS011;50497;50.720;-2.084;2022-12-17T15:06:07;2.83;;;1.20;;
64282;SDS011;50497;50.720;-2.084;2022-12-17T15:08:35;4.23;;;1.30;;
64282;SDS011;50497;50.720;-2.084;2022-12-17T15:11:04;3.55;;;1.10;;
64282;SDS011;50497;50.720;-2.084;2022-12-17T15:13:29;3.22;;;1.40;;
64282;SDS011;50497;50.720;-2.084;2022-12-17T15:15:55;3.95;;;1.30;;
64282;SDS011;50497;50.720;-2.084;2022-12-17T15:18:25;41.40;;;15.25;;
64282;SDS011;50497;50.720;-2.084;2022-12-17T15:20:50;4.63;;;1.50;;
64282;SDS011;50497;50.720;-2.084;2022-12-17T15:23:20;5.28;;;1.40;;
64282;SDS011;50497;50.720;-2.084;2022-12-17T15:25:48;2.92;;;1.40;;
64282;SDS011;50497;50.720;-2.084;2022-12-17T15:28:15;7.28;;;1.42;;
64282;SDS011;50497;50.720;-2.084;2022-12-17T15:30:43;3.40;;;1.40;;
64282;SDS011;50497;50.720;-2.084;2022-12-17T15:33:08;4.43;;;1.48;;
64282;SDS011;50497;50.720;-2.084;2022-12-17T15:35:37;4.75;;;1.75;;
64282;SDS011;50497;50.720;-2.084;2022-12-17T15:38:04;3.65;;;1.30;;
64282;SDS011;50497;50.720;-2.084;2022-12-17T15:40:31;4.93;;;1.30;;
64282;SDS011;50497;50.720;-2.084;2022-12-17T15:42:58;3.53;;;1.40;;
64282;SDS011;50497;50.720;-2.084;2022-12-17T15:45:36;6.65;;;1.50;;
64282;SDS011;50497;50.720;-2.084;2022-12-17T15:50:30;4.28;;;1.48;;
64282;SDS011;50497;50.720;-2.084;2022-12-17T15:52:56;4.35;;;1.58;;
64282;SDS011;50497;50.720;-2.084;2022-12-17T15:55:22;4.57;;;1.52;;
64282;SDS011;50497;50.720;-2.084;2022-12-17T15:57:47;4.18;;;1.70;;
64282;SDS011;50497;50.720;-2.084;2022-12-17T16:00:13;4.05;;;1.67;;
64282;SDS011;50497;50.720;-2.084;2022-12-17T16:02:39;5.43;;;1.60;;
64282;SDS011;50497;50.720;-2.084;2022-12-17T16:05:04;5.38;;;1.60;;
64282;SDS011;50497;50.720;-2.084;2022-12-17T16:07:30;3.35;;;1.35;;
64282;SDS011;50497;50.720;-2.084;2022-12-17T16:09:55;3.65;;;1.40;;
64282;SDS011;50497;50.720;-2.084;2022-12-17T16:12:21;4.50;;;1.60;;
64282;SDS011;50497;50.720;-2.084;2022-12-17T16:14:47;5.00;;;1.70;;
64282;SDS011;50497;50.720;-2.084;2022-12-17T16:17:12;4.88;;;1.80;;
64282;SDS011;50497;50.720;-2.084;2022-12-17T16:19:38;4.93;;;1.77;;
64282;SDS011;50497;50.720;-2.084;2022-12-17T16:22:03;3.88;;;1.70;;
64282;SDS011;50497;50.720;-2.084;2022-12-17T16:24:29;5.20;;;1.80;;
64282;SDS011;50497;50.720;-2.084;2022-12-17T16:26:54;4.70;;;1.70;;
64282;SDS011;50497;50.720;-2.084;2022-12-17T16:29:20;3.78;;;1.50;;
64282;SDS011;50497;50.720;-2.084;2022-12-17T16:31:46;4.57;;;1.70;;
64282;SDS011;50497;50.720;-2.084;2022-12-17T16:34:13;4.97;;;1.73;;
64282;SDS011;50497;50.720;-2.084;2022-12-17T16:36:38;4.07;;;1.60;;
64282;SDS011;50497;50.720;-2.084;2022-12-17T16:39:04;5.32;;;1.80;;
64282;SDS011;50497;50.720;-2.084;2022-12-17T16:41:30;5.05;;;1.73;;
64282;SDS011;50497;50.720;-2.084;2022-12-17T16:43:56;3.35;;;1.50;;
64282;SDS011;50497;50.720;-2.084;2022-12-17T16:46:22;4.35;;;1.60;;
64282;SDS011;50497;50.720;-2.084;2022-12-17T16:48:56;5.70;;;1.70;;
64282;SDS011;50497;50.720;-2.084;2022-12-17T16:51:24;4.68;;;1.63;;
64282;SDS011;50497;50.720;-2.084;2022-12-17T16:53:51;4.70;;;1.50;;
64282;SDS011;50497;50.720;-2.084;2022-12-17T16:56:18;5.22;;;1.85;;
64282;SDS011;50497;50.720;-2.084;2022-12-17T16:58:45;4.55;;;1.70;;
64282;SDS011;50497;50.720;-2.084;2022-12-17T17:01:12;4.43;;;1.70;;
64282;SDS011;50497;50.720;-2.084;2022-12-17T17:03:41;4.28;;;1.80;;
64282;SDS011;50497;50.720;-2.084;2022-12-17T17:06:07;4.57;;;1.58;;
64282;SDS011;50497;50.720;-2.084;2022-12-17T17:08:37;4.47;;;1.67;;
64282;SDS011;50497;50.720;-2.084;2022-12-17T17:11:22;4.63;;;1.60;;
64282;SDS011;50497;50.720;-2.084;2022-12-17T17:13:53;6.05;;;1.58;;
64282;SDS011;50497;50.720;-2.084;2022-12-17T17:16:19;4.50;;;1.50;;
64282;SDS011;50497;50.720;-2.084;2022-12-17T17:18:47;4.38;;;1.70;;
64282;SDS011;50497;50.720;-2.084;2022-12-17T17:23:46;4.75;;;1.63;;
64282;SDS011;50497;50.720;-2.084;2022-12-17T17:26:13;6.20;;;2.00;;
64282;SDS011;50497;50.720;-2.084;2022-12-17T17:28:39;5.60;;;2.20;;
64282;SDS011;50497;50.720;-2.084;2022-12-17T17:31:06;7.93;;;3.15;;
64282;SDS011;50497;50.720;-2.084;2022-12-17T17:33:35;6.50;;;2.50;;
64282;SDS011;50497;50.720;-2.084;2022-12-17T17:36:03;4.82;;;1.80;;
64282;SDS011;50497;50.720;-2.084;2022-12-17T17:38:49;5.20;;;1.35;;
64282;SDS011;50497;50.720;-2.084;2022-12-17T17:41:17;3.33;;;1.40;;